sensor_id;sensor_type;location;lat;lon;timestamp;temperature;humidity
9837;DHT22;4957;51.412;6.724;2022-08-01T00:01:06;22.60;76.20
9837;DHT22;4957;51.412;6.724;2022-08-01T00:03:32;22.60;75.90
9837;DHT22;4957;51.412;6.724;2022-08-01T00:05:58;22.60;76.00
9837;DHT22;4957;51.412;6.724;2022-08-01T00:08:23;22.60;76.80
9837;DHT22;4957;51.412;6.724;2022-08-01T00:10:50;22.50;76.30
9837;DHT22;4957;51.412;6.724;2022-08-01T00:13:15;22.50;76.70
9837;DHT22;4957;51.412;6.724;2022-08-01T00:15:41;22.50;76.60
9837;DHT22;4957;51.412;6.724;2022-08-01T00:18:07;22.50;76.60
9837;DHT22;4957;51.412;6.724;2022-08-01T00:20:32;22.50;76.50
9837;DHT22;4957;51.412;6.724;2022-08-01T00:22:58;22.50;76.30
9837;DHT22;4957;51.412;6.724;2022-08-01T00:25:24;22.50;76.50
9837;DHT22;4957;51.412;6.724;2022-08-01T00:27:49;22.50;76.50
9837;DHT22;4957;51.412;6.724;2022-08-01T00:30:15;22.40;76.50
9837;DHT22;4957;51.412;6.724;2022-08-01T00:32:42;22.50;77.00
9837;DHT22;4957;51.412;6.724;2022-08-01T00:35:08;22.40;77.20
9837;DHT22;4957;51.412;6.724;2022-08-01T00:37:33;22.40;77.20
9837;DHT22;4957;51.412;6.724;2022-08-01T00:39:59;22.40;77.30
9837;DHT22;4957;51.412;6.724;2022-08-01T00:42:25;22.40;77.20
9837;DHT22;4957;51.412;6.724;2022-08-01T00:44:50;22.40;77.90
9837;DHT22;4957;51.412;6.724;2022-08-01T00:47:16;22.40;77.20
9837;DHT22;4957;51.412;6.724;2022-08-01T00:49:42;22.40;77.40
9837;DHT22;4957;51.412;6.724;2022-08-01T00:52:08;22.30;77.20
9837;DHT22;4957;51.412;6.724;2022-08-01T00:54:35;22.30;77.10
9837;DHT22;4957;51.412;6.724;2022-08-01T00:57:01;22.30;77.10
9837;DHT22;4957;51.412;6.724;2022-08-01T00:59:27;22.30;76.40
9837;DHT22;4957;51.412;6.724;2022-08-01T01:01:53;22.30;77.10
9837;DHT22;4957;51.412;6.724;2022-08-01T01:04:19;22.30;77.10
9837;DHT22;4957;51.412;6.724;2022-08-01T01:07:04;22.30;77.10
9837;DHT22;4957;51.412;6.724;2022-08-01T01:09:52;22.20;76.90
9837;DHT22;4957;51.412;6.724;2022-08-01T01:12:40;22.20;78.00
9837;DHT22;4957;51.412;6.724;2022-08-01T01:15:15;22.20;78.10
9837;DHT22;4957;51.412;6.724;2022-08-01T01:18:12;22.20;77.90
9837;DHT22;4957;51.412;6.724;2022-08-01T01:20:44;22.20;77.40
9837;DHT22;4957;51.412;6.724;2022-08-01T01:29:16;22.10;77.70
9837;DHT22;4957;51.412;6.724;2022-08-01T01:31:57;22.10;77.70
9837;DHT22;4957;51.412;6.724;2022-08-01T01:34:25;22.00;78.20
9837;DHT22;4957;51.412;6.724;2022-08-01T01:36:54;22.00;77.40
9837;DHT22;4957;51.412;6.724;2022-08-01T01:39:24;22.00;77.40
9837;DHT22;4957;51.412;6.724;2022-08-01T01:41:52;21.90;77.90
9837;DHT22;4957;51.412;6.724;2022-08-01T01:44:18;21.90;77.90
9837;DHT22;4957;51.412;6.724;2022-08-01T01:46:45;21.90;77.90
9837;DHT22;4957;51.412;6.724;2022-08-01T01:49:11;21.90;77.90
9837;DHT22;4957;51.412;6.724;2022-08-01T01:51:39;21.90;77.50
9837;DHT22;4957;51.412;6.724;2022-08-01T01:54:08;21.90;78.40
9837;DHT22;4957;51.412;6.724;2022-08-01T01:56:35;21.90;78.70
9837;DHT22;4957;51.412;6.724;2022-08-01T01:59:21;21.80;78.50
9837;DHT22;4957;51.412;6.724;2022-08-01T02:01:51;21.90;78.70
9837;DHT22;4957;51.412;6.724;2022-08-01T02:04:18;21.80;78.60
9837;DHT22;4957;51.412;6.724;2022-08-01T02:06:45;21.80;78.70
9837;DHT22;4957;51.412;6.724;2022-08-01T02:09:15;21.80;78.70
9837;DHT22;4957;51.412;6.724;2022-08-01T02:11:43;21.80;78.70
9837;DHT22;4957;51.412;6.724;2022-08-01T02:14:11;21.70;78.60
9837;DHT22;4957;51.412;6.724;2022-08-01T02:16:39;21.80;78.90
9837;DHT22;4957;51.412;6.724;2022-08-01T02:19:05;21.80;79.60
9837;DHT22;4957;51.412;6.724;2022-08-01T02:21:40;21.70;79.30
9837;DHT22;4957;51.412;6.724;2022-08-01T02:24:11;21.80;80.30
9837;DHT22;4957;51.412;6.724;2022-08-01T02:26:42;21.80;79.20
9837;DHT22;4957;51.412;6.724;2022-08-01T02:29:11;21.70;80.20
9837;DHT22;4957;51.412;6.724;2022-08-01T02:31:41;21.80;79.70
9837;DHT22;4957;51.412;6.724;2022-08-01T02:34:12;21.70;80.10
9837;DHT22;4957;51.412;6.724;2022-08-01T02:36:38;21.70;80.00
9837;DHT22;4957;51.412;6.724;2022-08-01T02:39:08;21.70;80.00
9837;DHT22;4957;51.412;6.724;2022-08-01T02:41:39;21.70;80.50
9837;DHT22;4957;51.412;6.724;2022-08-01T02:44:08;21.70;80.70
9837;DHT22;4957;51.412;6.724;2022-08-01T02:46:45;21.70;80.10
9837;DHT22;4957;51.412;6.724;2022-08-01T02:49:14;21.70;80.70
9837;DHT22;4957;51.412;6.724;2022-08-01T02:51:43;21.70;80.30
9837;DHT22;4957;51.412;6.724;2022-08-01T02:54:11;21.60;80.70
9837;DHT22;4957;51.412;6.724;2022-08-01T02:56:38;21.70;80.60
9837;DHT22;4957;51.412;6.724;2022-08-01T02:59:10;21.60;80.40
9837;DHT22;4957;51.412;6.724;2022-08-01T03:01:38;21.60;80.70
9837;DHT22;4957;51.412;6.724;2022-08-01T03:04:05;21.70;81.00
9837;DHT22;4957;51.412;6.724;2022-08-01T03:06:32;21.60;80.80
9837;DHT22;4957;51.412;6.724;2022-08-01T03:09:00;21.60;80.80
9837;DHT22;4957;51.412;6.724;2022-08-01T03:11:27;21.60;81.30
9837;DHT22;4957;51.412;6.724;2022-08-01T03:13:55;21.60;81.40
9837;DHT22;4957;51.412;6.724;2022-08-01T03:16:23;21.60;81.60
9837;DHT22;4957;51.412;6.724;2022-08-01T03:18:53;21.60;81.60
9837;DHT22;4957;51.412;6.724;2022-08-01T03:21:21;21.60;81.70
9837;DHT22;4957;51.412;6.724;2022-08-01T03:23:47;21.60;82.00
9837;DHT22;4957;51.412;6.724;2022-08-01T03:26:15;21.50;81.50
9837;DHT22;4957;51.412;6.724;2022-08-01T03:28:41;21.50;81.60
9837;DHT22;4957;51.412;6.724;2022-08-01T03:31:10;21.50;82.00
9837;DHT22;4957;51.412;6.724;2022-08-01T03:33:37;21.60;82.20
9837;DHT22;4957;51.412;6.724;2022-08-01T03:36:05;21.60;82.00
9837;DHT22;4957;51.412;6.724;2022-08-01T03:38:35;21.50;82.00
9837;DHT22;4957;51.412;6.724;2022-08-01T03:41:09;21.50;82.30
9837;DHT22;4957;51.412;6.724;2022-08-01T03:46:48;21.50;83.00
9837;DHT22;4957;51.412;6.724;2022-08-01T03:49:18;21.50;82.80
9837;DHT22;4957;51.412;6.724;2022-08-01T03:51:47;21.50;82.30
9837;DHT22;4957;51.412;6.724;2022-08-01T03:54:17;21.50;82.10
9837;DHT22;4957;51.412;6.724;2022-08-01T03:56:46;21.50;81.80
9837;DHT22;4957;51.412;6.724;2022-08-01T03:59:15;21.50;81.90
9837;DHT22;4957;51.412;6.724;2022-08-01T04:01:44;21.50;81.90
9837;DHT22;4957;51.412;6.724;2022-08-01T04:04:10;21.50;81.80
9837;DHT22;4957;51.412;6.724;2022-08-01T04:06:40;21.40;81.20
9837;DHT22;4957;51.412;6.724;2022-08-01T04:09:09;21.40;81.80
9837;DHT22;4957;51.412;6.724;2022-08-01T04:11:36;21.40;82.00
9837;DHT22;4957;51.412;6.724;2022-08-01T04:14:02;21.40;81.80
9837;DHT22;4957;51.412;6.724;2022-08-01T04:16:28;21.40;81.70
9837;DHT22;4957;51.412;6.724;2022-08-01T04:18:54;21.40;81.80
9837;DHT22;4957;51.412;6.724;2022-08-01T04:21:26;21.30;81.80
9837;DHT22;4957;51.412;6.724;2022-08-01T04:24:02;21.30;82.70
9837;DHT22;4957;51.412;6.724;2022-08-01T04:26:31;21.30;82.60
9837;DHT22;4957;51.412;6.724;2022-08-01T04:29:00;21.30;82.20
9837;DHT22;4957;51.412;6.724;2022-08-01T04:31:29;21.30;82.40
9837;DHT22;4957;51.412;6.724;2022-08-01T04:33:56;21.30;82.30
9837;DHT22;4957;51.412;6.724;2022-08-01T04:36:23;21.30;82.80
9837;DHT22;4957;51.412;6.724;2022-08-01T04:38:54;21.30;83.10
9837;DHT22;4957;51.412;6.724;2022-08-01T04:41:22;21.30;83.30
9837;DHT22;4957;51.412;6.724;2022-08-01T04:43:48;21.30;83.10
9837;DHT22;4957;51.412;6.724;2022-08-01T04:46:16;21.30;83.30
9837;DHT22;4957;51.412;6.724;2022-08-01T04:48:43;21.30;82.90
9837;DHT22;4957;51.412;6.724;2022-08-01T04:51:17;21.30;83.10
9837;DHT22;4957;51.412;6.724;2022-08-01T04:53:44;21.30;84.10
9837;DHT22;4957;51.412;6.724;2022-08-01T04:56:12;21.30;83.80
9837;DHT22;4957;51.412;6.724;2022-08-01T04:58:41;21.30;83.70
9837;DHT22;4957;51.412;6.724;2022-08-01T05:01:07;21.30;83.60
9837;DHT22;4957;51.412;6.724;2022-08-01T05:03:33;21.30;84.10
9837;DHT22;4957;51.412;6.724;2022-08-01T05:05:59;21.30;84.10
9837;DHT22;4957;51.412;6.724;2022-08-01T05:08:25;21.30;84.00
9837;DHT22;4957;51.412;6.724;2022-08-01T05:10:50;21.30;83.90
9837;DHT22;4957;51.412;6.724;2022-08-01T05:13:16;21.30;83.80
9837;DHT22;4957;51.412;6.724;2022-08-01T05:15:42;21.30;84.10
9837;DHT22;4957;51.412;6.724;2022-08-01T05:18:08;21.30;84.00
9837;DHT22;4957;51.412;6.724;2022-08-01T05:20:34;21.30;84.10
9837;DHT22;4957;51.412;6.724;2022-08-01T05:22:59;21.30;84.10
9837;DHT22;4957;51.412;6.724;2022-08-01T05:25:25;21.30;84.30
9837;DHT22;4957;51.412;6.724;2022-08-01T05:27:51;21.30;84.30
9837;DHT22;4957;51.412;6.724;2022-08-01T05:30:16;21.30;84.60
9837;DHT22;4957;51.412;6.724;2022-08-01T05:32:42;21.30;84.10
9837;DHT22;4957;51.412;6.724;2022-08-01T05:35:08;21.30;84.10
9837;DHT22;4957;51.412;6.724;2022-08-01T05:37:34;21.30;82.10
9837;DHT22;4957;51.412;6.724;2022-08-01T05:40:00;21.30;83.10
9837;DHT22;4957;51.412;6.724;2022-08-01T05:42:26;21.30;84.10
9837;DHT22;4957;51.412;6.724;2022-08-01T05:44:52;21.30;84.00
9837;DHT22;4957;51.412;6.724;2022-08-01T05:47:18;21.30;84.30
9837;DHT22;4957;51.412;6.724;2022-08-01T05:49:44;21.30;84.10
9837;DHT22;4957;51.412;6.724;2022-08-01T05:52:11;21.30;84.10
9837;DHT22;4957;51.412;6.724;2022-08-01T05:54:37;21.30;84.10
9837;DHT22;4957;51.412;6.724;2022-08-01T05:57:03;21.40;85.20
9837;DHT22;4957;51.412;6.724;2022-08-01T05:59:29;21.40;85.10
9837;DHT22;4957;51.412;6.724;2022-08-01T06:01:56;21.40;85.90
9837;DHT22;4957;51.412;6.724;2022-08-01T06:04:22;21.40;86.00
9837;DHT22;4957;51.412;6.724;2022-08-01T06:06:48;21.40;86.20
9837;DHT22;4957;51.412;6.724;2022-08-01T06:09:13;21.40;86.80
9837;DHT22;4957;51.412;6.724;2022-08-01T06:11:39;21.50;85.90
9837;DHT22;4957;51.412;6.724;2022-08-01T06:14:05;21.50;86.50
9837;DHT22;4957;51.412;6.724;2022-08-01T06:16:31;21.50;87.40
9837;DHT22;4957;51.412;6.724;2022-08-01T06:18:57;21.50;87.70
9837;DHT22;4957;51.412;6.724;2022-08-01T06:21:22;21.50;87.40
9837;DHT22;4957;51.412;6.724;2022-08-01T06:23:48;21.60;87.90
9837;DHT22;4957;51.412;6.724;2022-08-01T06:26:19;21.60;88.40
9837;DHT22;4957;51.412;6.724;2022-08-01T06:28:45;21.60;89.30
9837;DHT22;4957;51.412;6.724;2022-08-01T06:31:11;21.60;88.80
9837;DHT22;4957;51.412;6.724;2022-08-01T06:33:39;21.60;89.70
9837;DHT22;4957;51.412;6.724;2022-08-01T06:36:05;21.70;90.30
9837;DHT22;4957;51.412;6.724;2022-08-01T06:38:31;21.70;90.80
9837;DHT22;4957;51.412;6.724;2022-08-01T06:40:56;21.80;91.60
9837;DHT22;4957;51.412;6.724;2022-08-01T06:43:22;21.80;92.20
9837;DHT22;4957;51.412;6.724;2022-08-01T06:45:48;21.90;92.90
9837;DHT22;4957;51.412;6.724;2022-08-01T06:48:14;21.90;93.10
9837;DHT22;4957;51.412;6.724;2022-08-01T06:50:40;22.00;93.20
9837;DHT22;4957;51.412;6.724;2022-08-01T06:53:05;22.10;93.30
9837;DHT22;4957;51.412;6.724;2022-08-01T06:55:31;22.20;93.40
9837;DHT22;4957;51.412;6.724;2022-08-01T06:57:57;22.10;93.30
9837;DHT22;4957;51.412;6.724;2022-08-01T07:00:24;22.20;93.40
9837;DHT22;4957;51.412;6.724;2022-08-01T07:02:52;22.30;93.60
9837;DHT22;4957;51.412;6.724;2022-08-01T07:05:18;22.30;93.40
9837;DHT22;4957;51.412;6.724;2022-08-01T07:07:44;22.40;92.60
9837;DHT22;4957;51.412;6.724;2022-08-01T07:10:10;22.40;93.10
9837;DHT22;4957;51.412;6.724;2022-08-01T07:12:37;22.40;92.90
9837;DHT22;4957;51.412;6.724;2022-08-01T07:15:09;22.50;93.00
9837;DHT22;4957;51.412;6.724;2022-08-01T07:17:39;22.50;92.80
9837;DHT22;4957;51.412;6.724;2022-08-01T07:20:07;22.60;92.40
9837;DHT22;4957;51.412;6.724;2022-08-01T07:22:33;22.60;91.60
9837;DHT22;4957;51.412;6.724;2022-08-01T07:24:59;22.70;91.40
9837;DHT22;4957;51.412;6.724;2022-08-01T07:27:24;22.70;91.40
9837;DHT22;4957;51.412;6.724;2022-08-01T07:29:51;22.70;91.50
9837;DHT22;4957;51.412;6.724;2022-08-01T07:32:16;22.80;91.30
9837;DHT22;4957;51.412;6.724;2022-08-01T07:34:42;22.80;91.10
9837;DHT22;4957;51.412;6.724;2022-08-01T07:37:08;22.90;90.70
9837;DHT22;4957;51.412;6.724;2022-08-01T07:39:33;22.90;90.70
9837;DHT22;4957;51.412;6.724;2022-08-01T07:41:59;23.00;90.60
9837;DHT22;4957;51.412;6.724;2022-08-01T07:44:25;23.00;90.80
9837;DHT22;4957;51.412;6.724;2022-08-01T07:46:50;23.10;91.00
9837;DHT22;4957;51.412;6.724;2022-08-01T07:49:16;23.20;90.80
9837;DHT22;4957;51.412;6.724;2022-08-01T07:51:42;23.30;91.00
9837;DHT22;4957;51.412;6.724;2022-08-01T07:54:07;23.40;91.00
9837;DHT22;4957;51.412;6.724;2022-08-01T07:56:33;23.50;90.40
9837;DHT22;4957;51.412;6.724;2022-08-01T07:58:59;23.60;90.20
9837;DHT22;4957;51.412;6.724;2022-08-01T08:01:24;23.70;89.60
9837;DHT22;4957;51.412;6.724;2022-08-01T08:03:50;23.80;89.20
9837;DHT22;4957;51.412;6.724;2022-08-01T08:06:16;24.00;87.00
9837;DHT22;4957;51.412;6.724;2022-08-01T08:08:42;24.10;87.80
9837;DHT22;4957;51.412;6.724;2022-08-01T08:11:07;24.20;86.80
9837;DHT22;4957;51.412;6.724;2022-08-01T08:13:33;24.40;86.20
9837;DHT22;4957;51.412;6.724;2022-08-01T08:15:59;24.60;85.10
9837;DHT22;4957;51.412;6.724;2022-08-01T08:18:25;24.70;86.00
9837;DHT22;4957;51.412;6.724;2022-08-01T08:20:51;25.00;85.00
9837;DHT22;4957;51.412;6.724;2022-08-01T08:23:17;25.10;83.90
9837;DHT22;4957;51.412;6.724;2022-08-01T08:26:01;25.30;84.00
9837;DHT22;4957;51.412;6.724;2022-08-01T08:28:26;25.50;82.40
9837;DHT22;4957;51.412;6.724;2022-08-01T08:30:52;25.70;82.10
9837;DHT22;4957;51.412;6.724;2022-08-01T08:33:20;25.90;79.60
9837;DHT22;4957;51.412;6.724;2022-08-01T08:35:45;26.20;78.00
9837;DHT22;4957;51.412;6.724;2022-08-01T08:38:11;26.30;77.00
9837;DHT22;4957;51.412;6.724;2022-08-01T08:40:37;26.40;75.80
9837;DHT22;4957;51.412;6.724;2022-08-01T08:43:04;26.50;74.50
9837;DHT22;4957;51.412;6.724;2022-08-01T08:45:31;26.60;73.50
9837;DHT22;4957;51.412;6.724;2022-08-01T08:47:57;26.70;72.00
9837;DHT22;4957;51.412;6.724;2022-08-01T08:50:26;26.80;71.80
9837;DHT22;4957;51.412;6.724;2022-08-01T08:52:53;26.80;70.80
9837;DHT22;4957;51.412;6.724;2022-08-01T08:55:20;26.90;69.90
9837;DHT22;4957;51.412;6.724;2022-08-01T08:57:47;26.90;69.10
9837;DHT22;4957;51.412;6.724;2022-08-01T09:00:14;27.00;68.50
9837;DHT22;4957;51.412;6.724;2022-08-01T09:02:43;27.10;67.90
9837;DHT22;4957;51.412;6.724;2022-08-01T09:05:10;27.20;68.00
9837;DHT22;4957;51.412;6.724;2022-08-01T09:07:36;27.30;68.60
9837;DHT22;4957;51.412;6.724;2022-08-01T09:10:03;27.40;68.20
9837;DHT22;4957;51.412;6.724;2022-08-01T09:12:29;27.50;67.30
9837;DHT22;4957;51.412;6.724;2022-08-01T09:15:01;27.60;66.60
9837;DHT22;4957;51.412;6.724;2022-08-01T09:20:30;27.70;65.00
9837;DHT22;4957;51.412;6.724;2022-08-01T09:22:56;27.80;64.90
9837;DHT22;4957;51.412;6.724;2022-08-01T09:25:22;27.80;63.90
9837;DHT22;4957;51.412;6.724;2022-08-01T09:27:48;27.90;63.40
9837;DHT22;4957;51.412;6.724;2022-08-01T09:30:18;28.00;63.80
9837;DHT22;4957;51.412;6.724;2022-08-01T09:32:57;28.10;63.00
9837;DHT22;4957;51.412;6.724;2022-08-01T09:35:27;28.30;62.40
9837;DHT22;4957;51.412;6.724;2022-08-01T09:38:13;28.40;62.70
9837;DHT22;4957;51.412;6.724;2022-08-01T09:40:57;28.60;60.50
9837;DHT22;4957;51.412;6.724;2022-08-01T09:43:28;28.80;59.80
9837;DHT22;4957;51.412;6.724;2022-08-01T09:45:57;28.90;59.50
9837;DHT22;4957;51.412;6.724;2022-08-01T09:48:23;29.10;59.30
9837;DHT22;4957;51.412;6.724;2022-08-01T09:50:51;29.20;59.00
9837;DHT22;4957;51.412;6.724;2022-08-01T09:53:18;29.30;58.60
9837;DHT22;4957;51.412;6.724;2022-08-01T09:55:43;29.40;57.90
9837;DHT22;4957;51.412;6.724;2022-08-01T09:58:12;29.60;57.70
9837;DHT22;4957;51.412;6.724;2022-08-01T10:00:39;29.70;57.40
9837;DHT22;4957;51.412;6.724;2022-08-01T10:03:26;29.90;56.70
9837;DHT22;4957;51.412;6.724;2022-08-01T10:05:52;30.00;56.30
9837;DHT22;4957;51.412;6.724;2022-08-01T10:08:23;30.20;56.90
9837;DHT22;4957;51.412;6.724;2022-08-01T10:11:20;30.40;56.20
9837;DHT22;4957;51.412;6.724;2022-08-01T10:13:47;30.60;55.00
9837;DHT22;4957;51.412;6.724;2022-08-01T10:16:14;30.80;55.00
9837;DHT22;4957;51.412;6.724;2022-08-01T10:18:41;31.00;54.00
9837;DHT22;4957;51.412;6.724;2022-08-01T10:21:08;31.20;53.50
9837;DHT22;4957;51.412;6.724;2022-08-01T10:23:36;31.30;53.20
9837;DHT22;4957;51.412;6.724;2022-08-01T10:26:05;31.50;52.30
9837;DHT22;4957;51.412;6.724;2022-08-01T10:28:31;31.50;51.80
9837;DHT22;4957;51.412;6.724;2022-08-01T10:30:59;31.60;51.90
9837;DHT22;4957;51.412;6.724;2022-08-01T10:33:25;31.60;51.30
9837;DHT22;4957;51.412;6.724;2022-08-01T10:35:51;31.70;51.10
9837;DHT22;4957;51.412;6.724;2022-08-01T10:38:17;31.70;51.10
9837;DHT22;4957;51.412;6.724;2022-08-01T10:40:43;31.70;50.60
9837;DHT22;4957;51.412;6.724;2022-08-01T10:43:10;31.80;50.90
9837;DHT22;4957;51.412;6.724;2022-08-01T10:45:36;31.90;50.80
9837;DHT22;4957;51.412;6.724;2022-08-01T10:48:26;32.00;50.10
9837;DHT22;4957;51.412;6.724;2022-08-01T10:50:58;32.10;48.90
9837;DHT22;4957;51.412;6.724;2022-08-01T10:53:26;32.30;49.00
9837;DHT22;4957;51.412;6.724;2022-08-01T10:56:00;32.50;48.90
9837;DHT22;4957;51.412;6.724;2022-08-01T10:58:29;32.70;48.50
9837;DHT22;4957;51.412;6.724;2022-08-01T11:01:27;32.90;48.90
9837;DHT22;4957;51.412;6.724;2022-08-01T11:06:52;33.10;48.30
9837;DHT22;4957;51.412;6.724;2022-08-01T11:09:28;33.30;47.90
9837;DHT22;4957;51.412;6.724;2022-08-01T11:12:00;33.50;47.60
9837;DHT22;4957;51.412;6.724;2022-08-01T11:14:27;33.60;47.20
9837;DHT22;4957;51.412;6.724;2022-08-01T11:16:53;33.70;47.30
9837;DHT22;4957;51.412;6.724;2022-08-01T11:19:19;33.80;47.00
9837;DHT22;4957;51.412;6.724;2022-08-01T11:24:53;33.90;45.30
9837;DHT22;4957;51.412;6.724;2022-08-01T11:27:25;33.90;45.40
9837;DHT22;4957;51.412;6.724;2022-08-01T11:33:05;34.20;45.00
9837;DHT22;4957;51.412;6.724;2022-08-01T11:35:32;34.30;44.90
9837;DHT22;4957;51.412;6.724;2022-08-01T11:38:24;34.50;45.20
9837;DHT22;4957;51.412;6.724;2022-08-01T11:41:20;34.60;43.50
9837;DHT22;4957;51.412;6.724;2022-08-01T11:44:09;34.70;43.20
9837;DHT22;4957;51.412;6.724;2022-08-01T11:52:24;34.90;43.40
9837;DHT22;4957;51.412;6.724;2022-08-01T11:57:29;34.90;42.70
9837;DHT22;4957;51.412;6.724;2022-08-01T12:00:05;34.90;42.50
9837;DHT22;4957;51.412;6.724;2022-08-01T12:02:35;35.00;42.50
9837;DHT22;4957;51.412;6.724;2022-08-01T12:07:31;35.10;42.00
9837;DHT22;4957;51.412;6.724;2022-08-01T12:10:10;35.20;41.80
9837;DHT22;4957;51.412;6.724;2022-08-01T12:12:41;35.30;41.10
9837;DHT22;4957;51.412;6.724;2022-08-01T12:15:08;35.30;41.30
9837;DHT22;4957;51.412;6.724;2022-08-01T12:17:46;35.30;41.40
9837;DHT22;4957;51.412;6.724;2022-08-01T12:20:14;35.40;40.80
9837;DHT22;4957;51.412;6.724;2022-08-01T12:22:40;35.40;41.40
9837;DHT22;4957;51.412;6.724;2022-08-01T12:25:07;35.50;40.90
9837;DHT22;4957;51.412;6.724;2022-08-01T12:27:33;35.60;40.60
9837;DHT22;4957;51.412;6.724;2022-08-01T12:30:00;35.60;40.60
9837;DHT22;4957;51.412;6.724;2022-08-01T12:32:31;35.70;40.20
9837;DHT22;4957;51.412;6.724;2022-08-01T12:37:29;35.80;39.80
9837;DHT22;4957;51.412;6.724;2022-08-01T12:39:56;35.80;40.20
9837;DHT22;4957;51.412;6.724;2022-08-01T12:42:22;35.80;39.80
9837;DHT22;4957;51.412;6.724;2022-08-01T12:44:51;35.80;39.40
9837;DHT22;4957;51.412;6.724;2022-08-01T12:47:18;35.90;39.20
9837;DHT22;4957;51.412;6.724;2022-08-01T12:49:45;35.90;39.00
9837;DHT22;4957;51.412;6.724;2022-08-01T12:52:13;35.90;39.00
9837;DHT22;4957;51.412;6.724;2022-08-01T12:57:27;35.90;38.40
9837;DHT22;4957;51.412;6.724;2022-08-01T12:59:53;35.90;39.10
9837;DHT22;4957;51.412;6.724;2022-08-01T13:02:19;35.90;38.90
9837;DHT22;4957;51.412;6.724;2022-08-01T13:04:51;35.80;38.80
9837;DHT22;4957;51.412;6.724;2022-08-01T13:07:17;35.80;37.80
9837;DHT22;4957;51.412;6.724;2022-08-01T13:09:50;35.80;37.90
9837;DHT22;4957;51.412;6.724;2022-08-01T13:12:16;35.80;37.30
9837;DHT22;4957;51.412;6.724;2022-08-01T13:14:42;35.80;37.80
9837;DHT22;4957;51.412;6.724;2022-08-01T13:17:08;35.80;38.20
9837;DHT22;4957;51.412;6.724;2022-08-01T13:19:46;35.80;38.00
9837;DHT22;4957;51.412;6.724;2022-08-01T13:22:13;35.80;37.60
9837;DHT22;4957;51.412;6.724;2022-08-01T13:24:38;35.80;38.20
9837;DHT22;4957;51.412;6.724;2022-08-01T13:27:04;35.70;37.80
9837;DHT22;4957;51.412;6.724;2022-08-01T13:29:36;35.70;37.70
9837;DHT22;4957;51.412;6.724;2022-08-01T13:32:18;35.60;37.60
9837;DHT22;4957;51.412;6.724;2022-08-01T13:34:43;35.60;38.10
9837;DHT22;4957;51.412;6.724;2022-08-01T13:37:09;35.50;38.40
9837;DHT22;4957;51.412;6.724;2022-08-01T13:39:35;35.40;38.70
9837;DHT22;4957;51.412;6.724;2022-08-01T13:42:16;35.30;38.60
9837;DHT22;4957;51.412;6.724;2022-08-01T13:44:42;35.30;38.40
9837;DHT22;4957;51.412;6.724;2022-08-01T13:47:10;35.20;38.60
9837;DHT22;4957;51.412;6.724;2022-08-01T13:49:36;35.10;39.10
9837;DHT22;4957;51.412;6.724;2022-08-01T13:52:02;35.00;38.90
9837;DHT22;4957;51.412;6.724;2022-08-01T13:54:28;34.90;38.60
9837;DHT22;4957;51.412;6.724;2022-08-01T13:56:54;34.90;38.40
9837;DHT22;4957;51.412;6.724;2022-08-01T13:59:20;34.80;39.10
9837;DHT22;4957;51.412;6.724;2022-08-01T14:01:46;34.70;39.50
9837;DHT22;4957;51.412;6.724;2022-08-01T14:04:13;34.70;40.00
9837;DHT22;4957;51.412;6.724;2022-08-01T14:06:39;34.60;39.90
9837;DHT22;4957;51.412;6.724;2022-08-01T14:09:05;34.50;39.80
9837;DHT22;4957;51.412;6.724;2022-08-01T14:11:31;34.40;39.70
9837;DHT22;4957;51.412;6.724;2022-08-01T14:13:58;34.40;40.00
9837;DHT22;4957;51.412;6.724;2022-08-01T14:16:24;34.30;39.60
9837;DHT22;4957;51.412;6.724;2022-08-01T14:18:49;34.20;40.10
9837;DHT22;4957;51.412;6.724;2022-08-01T14:21:15;34.10;39.80
9837;DHT22;4957;51.412;6.724;2022-08-01T14:23:41;34.10;39.70
9837;DHT22;4957;51.412;6.724;2022-08-01T14:26:10;34.00;39.70
9837;DHT22;4957;51.412;6.724;2022-08-01T14:28:36;33.90;39.70
9837;DHT22;4957;51.412;6.724;2022-08-01T14:31:02;33.90;39.80
9837;DHT22;4957;51.412;6.724;2022-08-01T14:33:28;33.80;39.90
9837;DHT22;4957;51.412;6.724;2022-08-01T14:35:54;33.80;40.10
9837;DHT22;4957;51.412;6.724;2022-08-01T14:38:20;33.70;40.60
9837;DHT22;4957;51.412;6.724;2022-08-01T14:40:46;33.60;40.50
9837;DHT22;4957;51.412;6.724;2022-08-01T14:43:17;33.70;40.20
9837;DHT22;4957;51.412;6.724;2022-08-01T14:45:42;33.60;40.10
9837;DHT22;4957;51.412;6.724;2022-08-01T14:48:08;33.60;40.00
9837;DHT22;4957;51.412;6.724;2022-08-01T14:50:33;33.50;40.10
9837;DHT22;4957;51.412;6.724;2022-08-01T14:52:59;33.50;40.10
9837;DHT22;4957;51.412;6.724;2022-08-01T14:55:25;33.50;40.20
9837;DHT22;4957;51.412;6.724;2022-08-01T14:57:53;33.50;40.20
9837;DHT22;4957;51.412;6.724;2022-08-01T15:00:18;33.50;40.20
9837;DHT22;4957;51.412;6.724;2022-08-01T15:02:45;33.40;40.10
9837;DHT22;4957;51.412;6.724;2022-08-01T15:05:11;33.40;40.20
9837;DHT22;4957;51.412;6.724;2022-08-01T15:07:37;33.40;40.90
9837;DHT22;4957;51.412;6.724;2022-08-01T15:10:04;33.30;40.50
9837;DHT22;4957;51.412;6.724;2022-08-01T15:12:31;33.30;40.20
9837;DHT22;4957;51.412;6.724;2022-08-01T15:14:56;33.30;40.20
9837;DHT22;4957;51.412;6.724;2022-08-01T15:17:28;33.20;40.10
9837;DHT22;4957;51.412;6.724;2022-08-01T15:20:00;33.20;40.00
9837;DHT22;4957;51.412;6.724;2022-08-01T15:22:27;33.10;40.10
9837;DHT22;4957;51.412;6.724;2022-08-01T15:24:55;33.10;40.10
9837;DHT22;4957;51.412;6.724;2022-08-01T15:27:21;33.00;40.00
9837;DHT22;4957;51.412;6.724;2022-08-01T15:29:48;33.00;40.10
9837;DHT22;4957;51.412;6.724;2022-08-01T15:32:14;33.00;40.20
9837;DHT22;4957;51.412;6.724;2022-08-01T15:34:40;33.00;40.20
9837;DHT22;4957;51.412;6.724;2022-08-01T15:37:07;32.90;40.20
9837;DHT22;4957;51.412;6.724;2022-08-01T15:39:34;32.90;40.00
9837;DHT22;4957;51.412;6.724;2022-08-01T15:42:03;32.90;39.90
9837;DHT22;4957;51.412;6.724;2022-08-01T15:44:30;32.90;40.30
9837;DHT22;4957;51.412;6.724;2022-08-01T15:46:56;32.80;39.70
9837;DHT22;4957;51.412;6.724;2022-08-01T15:49:21;32.80;39.80
9837;DHT22;4957;51.412;6.724;2022-08-01T15:51:48;32.80;39.80
9837;DHT22;4957;51.412;6.724;2022-08-01T15:54:15;32.70;39.80
9837;DHT22;4957;51.412;6.724;2022-08-01T15:56:41;32.70;39.90
9837;DHT22;4957;51.412;6.724;2022-08-01T15:59:07;32.60;39.90
9837;DHT22;4957;51.412;6.724;2022-08-01T16:01:32;32.60;40.20
9837;DHT22;4957;51.412;6.724;2022-08-01T16:03:58;32.60;40.50
9837;DHT22;4957;51.412;6.724;2022-08-01T16:06:24;32.50;40.40
9837;DHT22;4957;51.412;6.724;2022-08-01T16:08:50;32.50;40.40
9837;DHT22;4957;51.412;6.724;2022-08-01T16:11:17;32.40;40.40
9837;DHT22;4957;51.412;6.724;2022-08-01T16:13:43;32.40;41.30
9837;DHT22;4957;51.412;6.724;2022-08-01T16:16:10;32.30;40.70
9837;DHT22;4957;51.412;6.724;2022-08-01T16:18:36;32.30;40.70
9837;DHT22;4957;51.412;6.724;2022-08-01T16:21:02;32.20;40.40
9837;DHT22;4957;51.412;6.724;2022-08-01T16:23:28;32.20;40.30
9837;DHT22;4957;51.412;6.724;2022-08-01T16:25:54;32.10;40.20
9837;DHT22;4957;51.412;6.724;2022-08-01T16:28:20;32.10;40.80
9837;DHT22;4957;51.412;6.724;2022-08-01T16:30:46;32.00;40.60
9837;DHT22;4957;51.412;6.724;2022-08-01T16:33:12;32.00;40.80
9837;DHT22;4957;51.412;6.724;2022-08-01T16:35:38;32.00;40.70
9837;DHT22;4957;51.412;6.724;2022-08-01T16:38:05;32.00;40.50
9837;DHT22;4957;51.412;6.724;2022-08-01T16:40:31;31.90;40.40
9837;DHT22;4957;51.412;6.724;2022-08-01T16:42:57;32.00;40.50
9837;DHT22;4957;51.412;6.724;2022-08-01T16:45:23;31.90;40.50